Pisek, ND (58273)

9:01 AM CDT on September 02, 2015 (GMT -0500)
Rural | | Change Station
CLOSE
Current Station
Personal Weather Station
Location: Forest River, ND
Elevation: 869 ft
Nearby Weather Stations

Elev 869 ft 48.18 °N, 97.47 °W | Updated 1 minute ago

Mostly Cloudy
Mostly Cloudy
68.5 °F
Feels Like 68.5 °F
N
0.0
Wind Variable Wind from ENE
Gusts 0.0 mph

Today
High -- | Low -- °F
--% Chance of Precip.
Yesterday
High -- | Low -- °F
Precip. -- in
6:49 AM 8:10 PM
Waning Gibbous, 80% visible
Pressure 29.84 in
Visibility 0.2 miles
Clouds Overcast 100 ft
Dew Point 68 °F
Humidity 99%
Rainfall 0.00 in
Snow Depth Not available.
UV 1.0 out of 12
Pollen 11.00 out of 12
Air Quality Not available.
Flu Activity Not available.
METAR KGAF 021355Z AUTO 16008KT 1/4SM FG OVC001 19/19 A2984 RMK AO2
Pressure 29.84 in
Visibility 0.2 miles
Clouds Overcast 100 ft
Dew Point 68 °F
Humidity 99%
Rainfall 0.00 in
Snow Depth Not available.
UV 1.0 out of 12
Pollen 11.00 out of 12
Air Quality Not available.
Flu Activity Not available.
METAR KGAF 021355Z AUTO 16008KT 1/4SM FG OVC001 19/19 A2984 RMK AO2

10-Day Weather Forecast

×

Almanac

Astronomy

Sep. 02, 2015 Rise Set
Actual Time
Civil Twilight
Nautical Twilight
Astronomical Twilight
Moon
Length of Visible Light
Length of Day
Tomorrow will be .
, % of the Moon is Illuminated

Today's Extremes

State Highs State Lows

Community

WunderPhotos

Upload Photos

1,851,759 photos uploaded!

WunderBlogs® & News

Nearby

Air Quality

  Air Quality AQ Index Pollutant
Not available.

Snow Depth

Station Depth Elevation

Earthquake Activity

City Distance Mag. Time & Date
Minimum magnitude displayed is 2.5.

Coastal Water Temperatures

Place Temperature

Stations

Nearby Weather Stations

Station Location Temp. Windchill Dew Point Humidity Wind Precip. Elev Updated Type